SIA600 WSSS-RKSI
Flight info
| Callsign | SIA600 |
|---|---|
| Flight time | 5h 55m |
| Altitude | 35000 |
| Route | HOSBA DCT TOMAN L625 LUSMO N884 LAGOT/N0494F360 N884 LULBU/N0496F350 M754 AKOTA/N0493F360 L625 ABVAR/N0490F370 M646 HCN W4 APU B591 DUBAN B576 OLMEN OLMEN2H |
| Aircraft | B77W/H-SDE1E2E3FGHIJ4J5M1P2RWXYZ/LB1D1 |
Departure
| Time | 2026-05-06 03:39 |
|---|---|
| Airport | Singapore Changi Airport (WSSS) |
Arrival
| Time | 2026-05-06 09:35 |
|---|---|
| Airport | Incheon International Airport (RKSI) |
| Time | Latitude | Longitude | Altitude | Speed | Heading |
|---|---|---|---|---|---|
| 2026-05-06 03:25 | 1.35041 | 103.98823 | 35 ft | 0 kts | 292° |
| 2026-05-06 03:28 | 1.35030 | 103.98842 | 35 ft | 4 kts | 322° |
| 2026-05-06 03:28 | 1.35008 | 103.98857 | 35 ft | 4 kts | 308° |
| 2026-05-06 03:29 | 1.34998 | 103.98875 | 35 ft | 4 kts | 276° |
| 2026-05-06 03:29 | 1.35004 | 103.98896 | 35 ft | 4 kts | 211° |
| 2026-05-06 03:29 | 1.35027 | 103.98906 | 34 ft | 4 kts | 202° |
| 2026-05-06 03:29 | 1.35045 | 103.98914 | 35 ft | 0 kts | 202° |
| 2026-05-06 03:32 | 1.35040 | 103.98911 | 35 ft | 6 kts | 202° |
| 2026-05-06 03:32 | 1.34954 | 103.98875 | 35 ft | 15 kts | 202° |
| 2026-05-06 03:33 | 1.34890 | 103.98852 | 35 ft | 8 kts | 187° |
| 2026-05-06 03:33 | 1.34841 | 103.98872 | 35 ft | 8 kts | 133° |
| 2026-05-06 03:33 | 1.34815 | 103.98921 | 35 ft | 8 kts | 112° |
| 2026-05-06 03:33 | 1.34783 | 103.99002 | 35 ft | 13 kts | 112° |
| 2026-05-06 03:34 | 1.34751 | 103.99062 | 35 ft | 8 kts | 137° |
| 2026-05-06 03:34 | 1.34696 | 103.99066 | 34 ft | 8 kts | 194° |
| 2026-05-06 03:34 | 1.34607 | 103.99032 | 35 ft | 23 kts | 202° |
| 2026-05-06 03:34 | 1.34459 | 103.98969 | 35 ft | 23 kts | 203° |
| 2026-05-06 03:35 | 1.34311 | 103.98906 | 34 ft | 23 kts | 203° |
| 2026-05-06 03:35 | 1.34163 | 103.98843 | 35 ft | 23 kts | 203° |
| 2026-05-06 03:35 | 1.34015 | 103.98780 | 35 ft | 23 kts | 202° |
| 2026-05-06 03:35 | 1.33866 | 103.98719 | 35 ft | 23 kts | 202° |
| 2026-05-06 03:36 | 1.33718 | 103.98658 | 35 ft | 23 kts | 202° |
| 2026-05-06 03:36 | 1.33571 | 103.98595 | 35 ft | 23 kts | 204° |
| 2026-05-06 03:36 | 1.33424 | 103.98532 | 35 ft | 23 kts | 203° |
| 2026-05-06 03:36 | 1.33276 | 103.98471 | 35 ft | 23 kts | 202° |
| 2026-05-06 03:37 | 1.33127 | 103.98409 | 35 ft | 23 kts | 203° |
| 2026-05-06 03:37 | 1.33018 | 103.98362 | 35 ft | 10 kts | 202° |
| 2026-05-06 03:37 | 1.32960 | 103.98358 | 35 ft | 9 kts | 144° |
| 2026-05-06 03:37 | 1.32929 | 103.98412 | 35 ft | 9 kts | 114° |
| 2026-05-06 03:38 | 1.32903 | 103.98469 | 35 ft | 9 kts | 114° |
| 2026-05-06 03:38 | 1.32927 | 103.98517 | 35 ft | 9 kts | 22° |
| 2026-05-06 03:38 | 1.32987 | 103.98542 | 35 ft | 11 kts | 22° |
| 2026-05-06 03:38 | 1.33201 | 103.98630 | 35 ft | 68 kts | 22° |
| 2026-05-06 03:39 | 1.33861 | 103.98908 | 35 ft | 136 kts | 22° |
| 2026-05-06 03:39 | 1.34902 | 103.99348 | 52 ft | 185 kts | 22° |
| 2026-05-06 03:39 | 1.36126 | 103.99848 | 463 ft | 197 kts | 22° |
| 2026-05-06 03:39 | 1.37453 | 104.00409 | 923 ft | 208 kts | 22° |
| 2026-05-06 03:40 | 1.38763 | 104.00945 | 1790 ft | 200 kts | 22° |
| 2026-05-06 03:40 | 1.40046 | 104.01480 | 2349 ft | 206 kts | 24° |
| 2026-05-06 03:40 | 1.41435 | 104.02080 | 2564 ft | 229 kts | 23° |
| 2026-05-06 03:40 | 1.42970 | 104.02731 | 2887 ft | 248 kts | 23° |
| 2026-05-06 03:41 | 1.44602 | 104.03422 | 3428 ft | 260 kts | 23° |
| 2026-05-06 03:41 | 1.46265 | 104.04194 | 3969 ft | 267 kts | 34° |
| 2026-05-06 03:41 | 1.47503 | 104.05579 | 4544 ft | 272 kts | 65° |
| 2026-05-06 03:41 | 1.47938 | 104.07415 | 4948 ft | 277 kts | 90° |
| 2026-05-06 03:42 | 1.47499 | 104.09283 | 4900 ft | 276 kts | 115° |
| 2026-05-06 03:42 | 1.46686 | 104.11024 | 4945 ft | 277 kts | 116° |
| 2026-05-06 03:42 | 1.45856 | 104.12765 | 5567 ft | 278 kts | 115° |
| 2026-05-06 03:42 | 1.45031 | 104.14514 | 6349 ft | 279 kts | 115° |
| 2026-05-06 03:43 | 1.44204 | 104.16286 | 7056 ft | 283 kts | 115° |
| 2026-05-06 03:43 | 1.43362 | 104.18077 | 7762 ft | 286 kts | 115° |
| 2026-05-06 03:43 | 1.42517 | 104.19888 | 8492 ft | 289 kts | 115° |
| 2026-05-06 03:43 | 1.41671 | 104.21719 | 9132 ft | 293 kts | 115° |
| 2026-05-06 03:44 | 1.40809 | 104.23583 | 9757 ft | 297 kts | 115° |
| 2026-05-06 03:44 | 1.39937 | 104.25473 | 10340 ft | 305 kts | 115° |
| 2026-05-06 03:44 | 1.39016 | 104.27465 | 10527 ft | 327 kts | 115° |
| 2026-05-06 03:44 | 1.38028 | 104.29602 | 10710 ft | 350 kts | 115° |
| 2026-05-06 03:45 | 1.36978 | 104.31877 | 10897 ft | 371 kts | 115° |
| 2026-05-06 03:45 | 1.35892 | 104.34230 | 11332 ft | 384 kts | 115° |
| 2026-05-06 03:45 | 1.34753 | 104.36685 | 11922 ft | 394 kts | 115° |
| 2026-05-06 03:45 | 1.33608 | 104.39180 | 12686 ft | 394 kts | 112° |
| 2026-05-06 03:46 | 1.32896 | 104.41872 | 13213 ft | 402 kts | 92° |
| 2026-05-06 03:46 | 1.33017 | 104.44614 | 13762 ft | 403 kts | 86° |
| 2026-05-06 03:46 | 1.33162 | 104.47435 | 14389 ft | 409 kts | 88° |
| 2026-05-06 03:46 | 1.33252 | 104.50322 | 15184 ft | 411 kts | 88° |
| 2026-05-06 03:47 | 1.33319 | 104.53182 | 15934 ft | 414 kts | 89° |
| 2026-05-06 03:47 | 1.33383 | 104.56072 | 16589 ft | 418 kts | 89° |
| 2026-05-06 03:47 | 1.33447 | 104.58991 | 17215 ft | 423 kts | 89° |
| 2026-05-06 03:47 | 1.33513 | 104.61903 | 17822 ft | 427 kts | 88° |
| 2026-05-06 03:48 | 1.33581 | 104.64877 | 18442 ft | 430 kts | 88° |
| 2026-05-06 03:48 | 1.33655 | 104.67883 | 19031 ft | 434 kts | 88° |
| 2026-05-06 03:48 | 1.33729 | 104.70912 | 19599 ft | 438 kts | 88° |
| 2026-05-06 03:48 | 1.33801 | 104.73969 | 20150 ft | 442 kts | 88° |
| 2026-05-06 03:49 | 1.33874 | 104.77054 | 20687 ft | 446 kts | 88° |
| 2026-05-06 03:49 | 1.33949 | 104.80162 | 21203 ft | 450 kts | 89° |
| 2026-05-06 03:49 | 1.34025 | 104.83300 | 21711 ft | 453 kts | 89° |
| 2026-05-06 03:49 | 1.34101 | 104.86457 | 22199 ft | 456 kts | 89° |
| 2026-05-06 03:50 | 1.34177 | 104.89639 | 22669 ft | 460 kts | 89° |
| 2026-05-06 03:50 | 1.34254 | 104.92843 | 23077 ft | 464 kts | 89° |
| 2026-05-06 03:50 | 1.34332 | 104.96082 | 23421 ft | 470 kts | 89° |
| 2026-05-06 03:50 | 1.34411 | 104.99365 | 23741 ft | 474 kts | 89° |
| 2026-05-06 03:51 | 1.34490 | 105.02678 | 24047 ft | 479 kts | 89° |
| 2026-05-06 03:51 | 1.34570 | 105.06013 | 24428 ft | 481 kts | 89° |
| 2026-05-06 03:51 | 1.34652 | 105.09363 | 24839 ft | 483 kts | 89° |
| 2026-05-06 03:51 | 1.34730 | 105.12728 | 25231 ft | 485 kts | 89° |
| 2026-05-06 03:52 | 1.34808 | 105.16107 | 25578 ft | 488 kts | 89° |
| 2026-05-06 03:52 | 1.34890 | 105.19508 | 25918 ft | 491 kts | 89° |
| 2026-05-06 03:52 | 1.34972 | 105.22926 | 26248 ft | 494 kts | 89° |
| 2026-05-06 03:52 | 1.35051 | 105.26370 | 26597 ft | 497 kts | 89° |
| 2026-05-06 03:53 | 1.35132 | 105.29824 | 26940 ft | 498 kts | 89° |
| 2026-05-06 03:53 | 1.35217 | 105.33295 | 27272 ft | 502 kts | 89° |
| 2026-05-06 03:53 | 1.35303 | 105.36789 | 27605 ft | 503 kts | 89° |
| 2026-05-06 03:53 | 1.35387 | 105.40286 | 27876 ft | 505 kts | 89° |
| 2026-05-06 03:54 | 1.35470 | 105.43802 | 28094 ft | 507 kts | 89° |
| 2026-05-06 03:54 | 1.35554 | 105.47334 | 28300 ft | 510 kts | 89° |
| 2026-05-06 03:54 | 1.35638 | 105.50879 | 28509 ft | 512 kts | 89° |
| 2026-05-06 03:54 | 1.35723 | 105.54440 | 28742 ft | 513 kts | 89° |
| 2026-05-06 03:55 | 1.35808 | 105.58003 | 28962 ft | 514 kts | 89° |
| 2026-05-06 03:55 | 1.35892 | 105.61581 | 29156 ft | 516 kts | 89° |
| 2026-05-06 03:55 | 1.35978 | 105.65169 | 29344 ft | 517 kts | 89° |
| 2026-05-06 03:55 | 1.36062 | 105.68763 | 29498 ft | 519 kts | 89° |
| 2026-05-06 03:56 | 1.36220 | 105.72354 | 29601 ft | 517 kts | 83° |
| 2026-05-06 03:56 | 1.37163 | 105.75832 | 29623 ft | 522 kts | 65° |
| 2026-05-06 03:56 | 1.39077 | 105.78912 | 29764 ft | 524 kts | 51° |
| 2026-05-06 03:56 | 1.41640 | 105.81501 | 29947 ft | 525 kts | 39° |
| 2026-05-06 03:57 | 1.44713 | 105.83458 | 30077 ft | 525 kts | 28° |
| 2026-05-06 03:57 | 1.47990 | 105.85099 | 30136 ft | 528 kts | 27° |
| 2026-05-06 03:57 | 1.54612 | 105.88333 | 30333 ft | 530 kts | 27° |
| 2026-05-06 03:58 | 1.57913 | 105.89983 | 30485 ft | 531 kts | 27° |
| 2026-05-06 03:58 | 1.60090 | 105.91089 | 30587 ft | 531 kts | 27° |
| 2026-05-06 03:58 | 1.63381 | 105.92781 | 30717 ft | 531 kts | 28° |
| 2026-05-06 03:58 | 1.66659 | 105.94479 | 30858 ft | 531 kts | 28° |
| 2026-05-06 03:59 | 1.69939 | 105.96184 | 31031 ft | 531 kts | 28° |
| 2026-05-06 03:59 | 1.73213 | 105.97885 | 31219 ft | 530 kts | 28° |
| 2026-05-06 03:59 | 1.76483 | 105.99580 | 31400 ft | 529 kts | 28° |
| 2026-05-06 03:59 | 1.79747 | 106.01269 | 31565 ft | 529 kts | 28° |
| 2026-05-06 04:00 | 1.83012 | 106.02958 | 31740 ft | 528 kts | 28° |
| 2026-05-06 04:00 | 1.86274 | 106.04647 | 31920 ft | 528 kts | 28° |
| 2026-05-06 04:00 | 1.89534 | 106.06334 | 32125 ft | 527 kts | 28° |
| 2026-05-06 04:00 | 1.92784 | 106.08016 | 32282 ft | 526 kts | 28° |
| 2026-05-06 04:01 | 1.96037 | 106.09698 | 32457 ft | 526 kts | 28° |
| 2026-05-06 04:01 | 1.99283 | 106.11378 | 32668 ft | 525 kts | 28° |
| 2026-05-06 04:01 | 2.02525 | 106.13054 | 32871 ft | 524 kts | 28° |
| 2026-05-06 04:01 | 2.05762 | 106.14728 | 33051 ft | 524 kts | 28° |
| 2026-05-06 04:02 | 2.08996 | 106.16402 | 33223 ft | 523 kts | 28° |
| 2026-05-06 04:02 | 2.12226 | 106.18074 | 33401 ft | 523 kts | 28° |
| 2026-05-06 04:02 | 2.15450 | 106.19744 | 33594 ft | 522 kts | 28° |
| 2026-05-06 04:02 | 2.18676 | 106.21416 | 33757 ft | 521 kts | 28° |
| 2026-05-06 04:03 | 2.21893 | 106.23082 | 33954 ft | 521 kts | 28° |
| 2026-05-06 04:03 | 2.25108 | 106.24747 | 34126 ft | 520 kts | 28° |
| 2026-05-06 04:03 | 2.28316 | 106.26411 | 34295 ft | 519 kts | 28° |
| 2026-05-06 04:03 | 2.31524 | 106.28071 | 34469 ft | 519 kts | 28° |
| 2026-05-06 04:04 | 2.34723 | 106.29729 | 34663 ft | 518 kts | 28° |
| 2026-05-06 04:04 | 2.37827 | 106.31549 | 34799 ft | 517 kts | 34° |
| 2026-05-06 04:04 | 2.43402 | 106.36023 | 34901 ft | 511 kts | 42° |
| 2026-05-06 04:05 | 2.48665 | 106.40733 | 34893 ft | 505 kts | 42° |
| 2026-05-06 04:05 | 2.53921 | 106.45384 | 34902 ft | 505 kts | 41° |
| 2026-05-06 04:06 | 2.59205 | 106.50022 | 34901 ft | 505 kts | 41° |
| 2026-05-06 04:06 | 2.64496 | 106.54656 | 34898 ft | 506 kts | 41° |
| 2026-05-06 04:07 | 2.69795 | 106.59295 | 34900 ft | 506 kts | 41° |
| 2026-05-06 04:07 | 2.75098 | 106.63941 | 34898 ft | 507 kts | 41° |
| 2026-05-06 04:08 | 2.80362 | 106.68556 | 34898 ft | 507 kts | 41° |
| 2026-05-06 04:08 | 2.85708 | 106.73240 | 34899 ft | 507 kts | 41° |
| 2026-05-06 04:09 | 2.91014 | 106.77892 | 34897 ft | 507 kts | 41° |
| 2026-05-06 04:09 | 2.96286 | 106.82515 | 34891 ft | 507 kts | 41° |
| 2026-05-06 04:10 | 3.01590 | 106.87167 | 34888 ft | 507 kts | 41° |
| 2026-05-06 04:10 | 3.06893 | 106.91817 | 34887 ft | 507 kts | 41° |
| 2026-05-06 04:11 | 3.12193 | 106.96465 | 34872 ft | 507 kts | 41° |
| 2026-05-06 04:11 | 3.17490 | 107.01113 | 34870 ft | 506 kts | 41° |
| 2026-05-06 04:12 | 3.22786 | 107.05760 | 34870 ft | 506 kts | 41° |
| 2026-05-06 04:12 | 3.28082 | 107.10405 | 34873 ft | 506 kts | 41° |
| 2026-05-06 04:13 | 3.33373 | 107.15051 | 34869 ft | 506 kts | 41° |
| 2026-05-06 04:13 | 3.38666 | 107.19698 | 34871 ft | 506 kts | 41° |
| 2026-05-06 04:14 | 3.43959 | 107.24344 | 34870 ft | 506 kts | 42° |
| 2026-05-06 04:14 | 3.49250 | 107.28994 | 34870 ft | 506 kts | 41° |
| 2026-05-06 04:15 | 3.54543 | 107.33639 | 34868 ft | 506 kts | 41° |
| 2026-05-06 04:15 | 3.59834 | 107.38284 | 34873 ft | 506 kts | 41° |
| 2026-05-06 04:16 | 3.65130 | 107.42935 | 34870 ft | 506 kts | 42° |
| 2026-05-06 04:16 | 3.70418 | 107.47585 | 34871 ft | 506 kts | 41° |
| 2026-05-06 04:17 | 3.75711 | 107.52235 | 34861 ft | 506 kts | 41° |
| 2026-05-06 04:17 | 3.81004 | 107.56888 | 34861 ft | 506 kts | 42° |
| 2026-05-06 04:18 | 3.86298 | 107.61539 | 34861 ft | 506 kts | 42° |
| 2026-05-06 04:18 | 3.91587 | 107.66191 | 34861 ft | 506 kts | 42° |
| 2026-05-06 04:19 | 3.96874 | 107.70842 | 34860 ft | 506 kts | 42° |
| 2026-05-06 04:19 | 4.02158 | 107.75487 | 34860 ft | 505 kts | 42° |
| 2026-05-06 04:20 | 4.07438 | 107.80134 | 34861 ft | 505 kts | 42° |
| 2026-05-06 04:20 | 4.12720 | 107.84781 | 34861 ft | 506 kts | 42° |
| 2026-05-06 04:21 | 4.18004 | 107.89431 | 34859 ft | 506 kts | 42° |
| 2026-05-06 04:21 | 4.23294 | 107.94086 | 34863 ft | 506 kts | 42° |
| 2026-05-06 04:22 | 4.28573 | 107.98735 | 34860 ft | 505 kts | 42° |
| 2026-05-06 04:23 | 4.36464 | 108.05683 | 34862 ft | 506 kts | 42° |
| 2026-05-06 04:23 | 4.41751 | 108.10339 | 34869 ft | 506 kts | 42° |
| 2026-05-06 04:24 | 4.47027 | 108.14993 | 34872 ft | 506 kts | 42° |
| 2026-05-06 04:24 | 4.52310 | 108.19644 | 34870 ft | 506 kts | 42° |
| 2026-05-06 04:25 | 4.57599 | 108.24303 | 34871 ft | 506 kts | 42° |
| 2026-05-06 04:25 | 4.62878 | 108.28960 | 34869 ft | 506 kts | 42° |
| 2026-05-06 04:26 | 4.68162 | 108.33619 | 34872 ft | 506 kts | 42° |
| 2026-05-06 04:26 | 4.73353 | 108.38373 | 34867 ft | 505 kts | 47° |
| 2026-05-06 04:27 | 4.77860 | 108.43769 | 34877 ft | 505 kts | 52° |
| 2026-05-06 04:27 | 4.82272 | 108.49309 | 34869 ft | 505 kts | 52° |
| 2026-05-06 04:28 | 4.86649 | 108.54763 | 34872 ft | 505 kts | 51° |
| 2026-05-06 04:28 | 4.91106 | 108.60275 | 34870 ft | 506 kts | 51° |
| 2026-05-06 04:29 | 4.95539 | 108.65746 | 34869 ft | 506 kts | 51° |
| 2026-05-06 04:29 | 4.99975 | 108.71223 | 34870 ft | 506 kts | 51° |
| 2026-05-06 04:30 | 5.04409 | 108.76700 | 34870 ft | 505 kts | 51° |
| 2026-05-06 04:30 | 5.08838 | 108.82173 | 34870 ft | 505 kts | 51° |
| 2026-05-06 04:31 | 5.13263 | 108.87647 | 34871 ft | 505 kts | 51° |
| 2026-05-06 04:31 | 5.17664 | 108.93089 | 34871 ft | 506 kts | 51° |
| 2026-05-06 04:32 | 5.22088 | 108.98567 | 34869 ft | 505 kts | 51° |
| 2026-05-06 04:32 | 5.26511 | 109.04042 | 34871 ft | 505 kts | 51° |
| 2026-05-06 04:33 | 5.30963 | 109.09549 | 34871 ft | 505 kts | 51° |
| 2026-05-06 04:33 | 5.35360 | 109.14990 | 34876 ft | 505 kts | 51° |
| 2026-05-06 04:34 | 5.39787 | 109.20472 | 34881 ft | 505 kts | 51° |
| 2026-05-06 04:34 | 5.44214 | 109.25954 | 34875 ft | 506 kts | 51° |
| 2026-05-06 04:35 | 5.48643 | 109.31441 | 34860 ft | 506 kts | 51° |
| 2026-05-06 04:35 | 5.53070 | 109.36931 | 34861 ft | 506 kts | 51° |
| 2026-05-06 04:36 | 5.57496 | 109.42418 | 34861 ft | 506 kts | 51° |
| 2026-05-06 04:36 | 5.61924 | 109.47910 | 34861 ft | 506 kts | 51° |
| 2026-05-06 04:37 | 5.66344 | 109.53390 | 34857 ft | 505 kts | 51° |
| 2026-05-06 04:37 | 5.70765 | 109.58873 | 34863 ft | 505 kts | 51° |
| 2026-05-06 04:38 | 5.75191 | 109.64359 | 34862 ft | 506 kts | 51° |
| 2026-05-06 04:38 | 5.79618 | 109.69860 | 34861 ft | 506 kts | 51° |
| 2026-05-06 04:39 | 5.84042 | 109.75355 | 34861 ft | 506 kts | 51° |
| 2026-05-06 04:39 | 5.88470 | 109.80853 | 34863 ft | 506 kts | 51° |
| 2026-05-06 04:40 | 5.92896 | 109.86351 | 34860 ft | 506 kts | 51° |
| 2026-05-06 04:40 | 5.97321 | 109.91848 | 34864 ft | 506 kts | 51° |
| 2026-05-06 04:41 | 6.01745 | 109.97347 | 34869 ft | 506 kts | 51° |
| 2026-05-06 04:41 | 6.05422 | 110.01918 | 34861 ft | 506 kts | 51° |
| 2026-05-06 04:42 | 6.10559 | 110.08309 | 34860 ft | 505 kts | 51° |
| 2026-05-06 04:42 | 6.14976 | 110.13802 | 34862 ft | 505 kts | 51° |
| 2026-05-06 04:43 | 6.18680 | 110.18411 | 34863 ft | 506 kts | 51° |
| 2026-05-06 04:43 | 6.23098 | 110.23912 | 34860 ft | 506 kts | 51° |
| 2026-05-06 04:44 | 6.27518 | 110.29415 | 34862 ft | 506 kts | 51° |
| 2026-05-06 04:44 | 6.31939 | 110.34921 | 34862 ft | 506 kts | 51° |
| 2026-05-06 04:45 | 6.36358 | 110.40426 | 34871 ft | 506 kts | 51° |
| 2026-05-06 04:45 | 6.40779 | 110.45935 | 34870 ft | 506 kts | 51° |
| 2026-05-06 04:46 | 6.45198 | 110.51444 | 34870 ft | 506 kts | 51° |
| 2026-05-06 04:46 | 6.49618 | 110.56952 | 34869 ft | 506 kts | 51° |
| 2026-05-06 04:47 | 6.54030 | 110.62461 | 34870 ft | 506 kts | 51° |
| 2026-05-06 04:47 | 6.58445 | 110.67970 | 34870 ft | 506 kts | 51° |
| 2026-05-06 04:48 | 6.62862 | 110.73479 | 34872 ft | 506 kts | 51° |
| 2026-05-06 04:48 | 6.67281 | 110.78998 | 34871 ft | 506 kts | 51° |
| 2026-05-06 04:49 | 6.71701 | 110.84518 | 34870 ft | 507 kts | 51° |
| 2026-05-06 04:49 | 6.76116 | 110.90037 | 34871 ft | 506 kts | 51° |
| 2026-05-06 04:50 | 6.80534 | 110.95557 | 34870 ft | 506 kts | 51° |
| 2026-05-06 04:50 | 6.84947 | 111.01074 | 34870 ft | 506 kts | 51° |
| 2026-05-06 04:51 | 6.89335 | 111.06561 | 35099 ft | 505 kts | 50° |
| 2026-05-06 04:51 | 6.91578 | 111.09363 | 35026 ft | 519 kts | 52° |
| 2026-05-06 04:51 | 6.93848 | 111.12201 | 34838 ft | 519 kts | 51° |
| 2026-05-06 04:51 | 6.96068 | 111.14986 | 34813 ft | 502 kts | 51° |
| 2026-05-06 04:52 | 6.98232 | 111.17699 | 34875 ft | 495 kts | 51° |
| 2026-05-06 04:52 | 7.02582 | 111.23144 | 34876 ft | 502 kts | 51° |
| 2026-05-06 04:53 | 7.06968 | 111.28621 | 34813 ft | 500 kts | 51° |
| 2026-05-06 04:53 | 7.11329 | 111.34100 | 34880 ft | 504 kts | 51° |
| 2026-05-06 04:54 | 7.15765 | 111.39656 | 34832 ft | 512 kts | 51° |
| 2026-05-06 04:54 | 7.20179 | 111.45190 | 34872 ft | 504 kts | 51° |
| 2026-05-06 04:55 | 7.24566 | 111.50692 | 34895 ft | 504 kts | 51° |
| 2026-05-06 04:55 | 7.28970 | 111.56219 | 34874 ft | 507 kts | 52° |
| 2026-05-06 04:56 | 7.33363 | 111.61771 | 34883 ft | 508 kts | 52° |
| 2026-05-06 04:56 | 7.37753 | 111.67331 | 34881 ft | 506 kts | 52° |
| 2026-05-06 04:57 | 7.42136 | 111.72882 | 34888 ft | 506 kts | 52° |
| 2026-05-06 04:57 | 7.46510 | 111.78424 | 34889 ft | 505 kts | 52° |
| 2026-05-06 04:58 | 7.50845 | 111.83914 | 34888 ft | 505 kts | 52° |
| 2026-05-06 04:58 | 7.55218 | 111.89454 | 34884 ft | 505 kts | 52° |
| 2026-05-06 04:59 | 7.59591 | 111.94997 | 34878 ft | 506 kts | 52° |
| 2026-05-06 04:59 | 7.63972 | 112.00553 | 34880 ft | 506 kts | 52° |
| 2026-05-06 05:00 | 7.68346 | 112.06106 | 34881 ft | 506 kts | 52° |
| 2026-05-06 05:00 | 7.72733 | 112.11670 | 34880 ft | 507 kts | 52° |
| 2026-05-06 05:01 | 7.77114 | 112.17231 | 34888 ft | 507 kts | 52° |
| 2026-05-06 05:01 | 7.81473 | 112.22764 | 34891 ft | 507 kts | 52° |
| 2026-05-06 05:02 | 7.85889 | 112.28374 | 34890 ft | 507 kts | 52° |
| 2026-05-06 05:02 | 7.90270 | 112.33947 | 34890 ft | 507 kts | 52° |
| 2026-05-06 05:03 | 7.94650 | 112.39516 | 34899 ft | 507 kts | 52° |
| 2026-05-06 05:03 | 7.99029 | 112.45086 | 34899 ft | 507 kts | 52° |
| 2026-05-06 05:04 | 8.03408 | 112.50657 | 34897 ft | 506 kts | 52° |
| 2026-05-06 05:04 | 8.07784 | 112.56225 | 34899 ft | 506 kts | 52° |
| 2026-05-06 05:05 | 8.12159 | 112.61796 | 34899 ft | 507 kts | 52° |
| 2026-05-06 05:05 | 8.16537 | 112.67369 | 34898 ft | 507 kts | 52° |
| 2026-05-06 05:06 | 8.20911 | 112.72946 | 34898 ft | 507 kts | 52° |
| 2026-05-06 05:06 | 8.25288 | 112.78527 | 34897 ft | 507 kts | 52° |
| 2026-05-06 05:07 | 8.29629 | 112.84066 | 34897 ft | 506 kts | 52° |
| 2026-05-06 05:07 | 8.34026 | 112.89675 | 34900 ft | 506 kts | 52° |
| 2026-05-06 05:08 | 8.38396 | 112.95253 | 34897 ft | 506 kts | 52° |
| 2026-05-06 05:08 | 8.42760 | 113.00827 | 34898 ft | 506 kts | 52° |
| 2026-05-06 05:09 | 8.47124 | 113.06401 | 34899 ft | 506 kts | 52° |
| 2026-05-06 05:09 | 8.51487 | 113.11973 | 34898 ft | 506 kts | 52° |
| 2026-05-06 05:10 | 8.55858 | 113.17559 | 34900 ft | 507 kts | 52° |
| 2026-05-06 05:10 | 8.60226 | 113.23150 | 34897 ft | 507 kts | 52° |
| 2026-05-06 05:11 | 8.64598 | 113.28747 | 34864 ft | 508 kts | 52° |
| 2026-05-06 05:11 | 8.68973 | 113.34346 | 34861 ft | 507 kts | 52° |
| 2026-05-06 05:12 | 8.73343 | 113.39940 | 34860 ft | 507 kts | 52° |
| 2026-05-06 05:12 | 8.77678 | 113.45493 | 34859 ft | 506 kts | 52° |
| 2026-05-06 05:13 | 8.82040 | 113.51083 | 34873 ft | 507 kts | 52° |
| 2026-05-06 05:13 | 8.86399 | 113.56681 | 34868 ft | 507 kts | 52° |
| 2026-05-06 05:14 | 8.90763 | 113.62275 | 34873 ft | 507 kts | 52° |
| 2026-05-06 05:14 | 8.95125 | 113.67870 | 34870 ft | 506 kts | 52° |
| 2026-05-06 05:15 | 8.99482 | 113.73464 | 34871 ft | 506 kts | 52° |
| 2026-05-06 05:15 | 9.03839 | 113.79063 | 34869 ft | 506 kts | 52° |
| 2026-05-06 05:16 | 9.08195 | 113.84659 | 34871 ft | 506 kts | 52° |
| 2026-05-06 05:16 | 9.12548 | 113.90256 | 34869 ft | 506 kts | 52° |
| 2026-05-06 05:17 | 9.16906 | 113.95861 | 34872 ft | 507 kts | 52° |
| 2026-05-06 05:17 | 9.21269 | 114.01476 | 34868 ft | 507 kts | 52° |
| 2026-05-06 05:18 | 9.25633 | 114.07094 | 34860 ft | 508 kts | 52° |
| 2026-05-06 05:18 | 9.29999 | 114.12715 | 34861 ft | 508 kts | 52° |
| 2026-05-06 05:19 | 9.34359 | 114.18333 | 34861 ft | 508 kts | 52° |
| 2026-05-06 05:19 | 9.38721 | 114.23956 | 34862 ft | 508 kts | 52° |
| 2026-05-06 05:20 | 9.43080 | 114.29577 | 34860 ft | 507 kts | 52° |
| 2026-05-06 05:20 | 9.47439 | 114.35202 | 34862 ft | 507 kts | 52° |
| 2026-05-06 05:21 | 9.51796 | 114.40827 | 34860 ft | 507 kts | 52° |
| 2026-05-06 05:21 | 9.56153 | 114.46455 | 34862 ft | 508 kts | 52° |
| 2026-05-06 05:22 | 9.60511 | 114.52087 | 34860 ft | 508 kts | 52° |
| 2026-05-06 05:22 | 9.64869 | 114.57718 | 34862 ft | 508 kts | 52° |
| 2026-05-06 05:23 | 9.69224 | 114.63354 | 34861 ft | 508 kts | 52° |
| 2026-05-06 05:23 | 9.75049 | 114.70888 | 34861 ft | 507 kts | 52° |
| 2026-05-06 05:24 | 9.79401 | 114.76524 | 34861 ft | 508 kts | 52° |
| 2026-05-06 05:24 | 9.83755 | 114.82163 | 34851 ft | 508 kts | 52° |
| 2026-05-06 05:25 | 9.88122 | 114.87793 | 34854 ft | 508 kts | 52° |
| 2026-05-06 05:25 | 9.92462 | 114.93377 | 34851 ft | 508 kts | 52° |
| 2026-05-06 05:26 | 9.96833 | 114.99007 | 34862 ft | 507 kts | 52° |
| 2026-05-06 05:26 | 10.01193 | 115.04632 | 34860 ft | 508 kts | 52° |
| 2026-05-06 05:27 | 10.05560 | 115.10268 | 34862 ft | 508 kts | 52° |
| 2026-05-06 05:27 | 10.09926 | 115.15908 | 34861 ft | 508 kts | 51° |
| 2026-05-06 05:28 | 10.14292 | 115.21551 | 34884 ft | 508 kts | 51° |
| 2026-05-06 05:28 | 10.18658 | 115.27196 | 34890 ft | 508 kts | 51° |
| 2026-05-06 05:29 | 10.23025 | 115.32844 | 34889 ft | 509 kts | 52° |
| 2026-05-06 05:29 | 10.27396 | 115.38499 | 34889 ft | 509 kts | 51° |
| 2026-05-06 05:30 | 10.31767 | 115.44161 | 34889 ft | 509 kts | 51° |
| 2026-05-06 05:30 | 10.36134 | 115.49817 | 34889 ft | 509 kts | 51° |
| 2026-05-06 05:31 | 10.40499 | 115.55473 | 34888 ft | 509 kts | 51° |
| 2026-05-06 05:31 | 10.44862 | 115.61132 | 34889 ft | 509 kts | 51° |
| 2026-05-06 05:32 | 10.49223 | 115.66791 | 34889 ft | 508 kts | 51° |
| 2026-05-06 05:32 | 10.53580 | 115.72447 | 34889 ft | 508 kts | 51° |
| 2026-05-06 05:33 | 10.57937 | 115.78102 | 34889 ft | 508 kts | 51° |
| 2026-05-06 05:33 | 10.62294 | 115.83763 | 34889 ft | 508 kts | 52° |
| 2026-05-06 05:34 | 10.66654 | 115.89433 | 34889 ft | 509 kts | 52° |
| 2026-05-06 05:34 | 10.71011 | 115.95098 | 34889 ft | 509 kts | 52° |
| 2026-05-06 05:35 | 10.75376 | 116.00776 | 34888 ft | 509 kts | 52° |
| 2026-05-06 05:35 | 10.79729 | 116.06452 | 34889 ft | 509 kts | 51° |
| 2026-05-06 05:36 | 10.84089 | 116.12132 | 34875 ft | 509 kts | 51° |
| 2026-05-06 05:36 | 10.88449 | 116.17812 | 34877 ft | 509 kts | 51° |
| 2026-05-06 05:37 | 10.92807 | 116.23496 | 34878 ft | 510 kts | 52° |
| 2026-05-06 05:37 | 10.97167 | 116.29185 | 34878 ft | 509 kts | 52° |
| 2026-05-06 05:38 | 11.01520 | 116.34868 | 34879 ft | 509 kts | 52° |
| 2026-05-06 05:38 | 11.05872 | 116.40551 | 34881 ft | 509 kts | 52° |
| 2026-05-06 05:39 | 11.10219 | 116.46237 | 34878 ft | 509 kts | 52° |
| 2026-05-06 05:39 | 11.14869 | 116.51618 | 34877 ft | 506 kts | 36° |
| 2026-05-06 05:40 | 11.17873 | 116.53457 | 34891 ft | 505 kts | 24° |
| 2026-05-06 05:40 | 11.21193 | 116.54602 | 34886 ft | 504 kts | 11° |
| 2026-05-06 05:40 | 11.28133 | 116.55408 | 34885 ft | 504 kts | 5° |
| 2026-05-06 05:41 | 11.35125 | 116.56179 | 34887 ft | 507 kts | 6° |
| 2026-05-06 05:41 | 11.42151 | 116.57021 | 34885 ft | 510 kts | 6° |
| 2026-05-06 05:42 | 11.49203 | 116.57896 | 34882 ft | 511 kts | 6° |
| 2026-05-06 05:42 | 11.56261 | 116.58775 | 34877 ft | 510 kts | 6° |
| 2026-05-06 05:43 | 11.63303 | 116.59648 | 34882 ft | 509 kts | 6° |
| 2026-05-06 05:43 | 11.70325 | 116.60519 | 34884 ft | 508 kts | 6° |
| 2026-05-06 05:44 | 11.77337 | 116.61388 | 34875 ft | 507 kts | 6° |
| 2026-05-06 05:44 | 11.84333 | 116.62255 | 34880 ft | 506 kts | 6° |
| 2026-05-06 05:45 | 11.91322 | 116.63121 | 34880 ft | 505 kts | 6° |
| 2026-05-06 05:45 | 11.98300 | 116.63988 | 34877 ft | 505 kts | 6° |
| 2026-05-06 05:46 | 12.05284 | 116.64855 | 34885 ft | 506 kts | 6° |
| 2026-05-06 05:46 | 12.12273 | 116.65722 | 34877 ft | 506 kts | 6° |
| 2026-05-06 05:47 | 12.19262 | 116.66590 | 34877 ft | 506 kts | 6° |
| 2026-05-06 05:47 | 12.26255 | 116.67461 | 34878 ft | 506 kts | 6° |
| 2026-05-06 05:48 | 12.33252 | 116.68332 | 34880 ft | 506 kts | 6° |
| 2026-05-06 05:48 | 12.40248 | 116.69203 | 34882 ft | 507 kts | 6° |
| 2026-05-06 05:49 | 12.47250 | 116.70076 | 34881 ft | 507 kts | 6° |
| 2026-05-06 05:49 | 12.54253 | 116.70949 | 34877 ft | 507 kts | 6° |
| 2026-05-06 05:50 | 12.61253 | 116.71821 | 34878 ft | 507 kts | 6° |
| 2026-05-06 05:50 | 12.68252 | 116.72695 | 34884 ft | 507 kts | 6° |
| 2026-05-06 05:51 | 12.75252 | 116.73569 | 34878 ft | 507 kts | 6° |
| 2026-05-06 05:51 | 12.82251 | 116.74444 | 34877 ft | 507 kts | 6° |
| 2026-05-06 05:52 | 12.89251 | 116.75316 | 34877 ft | 507 kts | 6° |
| 2026-05-06 05:52 | 12.96254 | 116.76192 | 34877 ft | 507 kts | 6° |
| 2026-05-06 05:53 | 13.03251 | 116.77067 | 34880 ft | 507 kts | 6° |
| 2026-05-06 05:53 | 13.10268 | 116.77946 | 35023 ft | 509 kts | 6° |
| 2026-05-06 05:54 | 13.13779 | 116.78386 | 35277 ft | 508 kts | 6° |
| 2026-05-06 05:54 | 13.17280 | 116.78825 | 35550 ft | 506 kts | 6° |
| 2026-05-06 05:54 | 13.20771 | 116.79262 | 35835 ft | 505 kts | 6° |
| 2026-05-06 05:54 | 13.24252 | 116.79698 | 36119 ft | 503 kts | 6° |
| 2026-05-06 05:55 | 13.27725 | 116.80133 | 36356 ft | 503 kts | 6° |
| 2026-05-06 05:55 | 13.31150 | 116.80563 | 36524 ft | 503 kts | 6° |
| 2026-05-06 05:55 | 13.34673 | 116.81005 | 36768 ft | 502 kts | 6° |
| 2026-05-06 05:55 | 13.38123 | 116.81439 | 36851 ft | 497 kts | 6° |
| 2026-05-06 05:56 | 13.41516 | 116.81865 | 36865 ft | 486 kts | 6° |
| 2026-05-06 05:56 | 13.44852 | 116.82284 | 36865 ft | 480 kts | 6° |
| 2026-05-06 05:56 | 13.51461 | 116.83113 | 36882 ft | 478 kts | 6° |
| 2026-05-06 05:57 | 13.58069 | 116.83942 | 36885 ft | 479 kts | 6° |
| 2026-05-06 05:57 | 13.64698 | 116.84778 | 36885 ft | 481 kts | 6° |
| 2026-05-06 05:58 | 13.71310 | 116.85610 | 36884 ft | 483 kts | 6° |
| 2026-05-06 05:58 | 13.77993 | 116.86451 | 36885 ft | 485 kts | 6° |
| 2026-05-06 05:59 | 13.84697 | 116.87296 | 36881 ft | 486 kts | 6° |
| 2026-05-06 05:59 | 13.91417 | 116.88142 | 36881 ft | 487 kts | 6° |
| 2026-05-06 06:00 | 13.98140 | 116.88990 | 36876 ft | 487 kts | 6° |
| 2026-05-06 06:00 | 14.04864 | 116.89838 | 36878 ft | 487 kts | 6° |
| 2026-05-06 06:01 | 14.11585 | 116.90687 | 36875 ft | 487 kts | 6° |
| 2026-05-06 06:01 | 14.18302 | 116.91535 | 36883 ft | 486 kts | 6° |
| 2026-05-06 06:02 | 14.25013 | 116.92386 | 36880 ft | 486 kts | 6° |
| 2026-05-06 06:02 | 14.31716 | 116.93234 | 36879 ft | 485 kts | 6° |
| 2026-05-06 06:03 | 14.38419 | 116.94085 | 36883 ft | 485 kts | 6° |
| 2026-05-06 06:03 | 14.45112 | 116.94934 | 36886 ft | 484 kts | 6° |
| 2026-05-06 06:04 | 14.51803 | 116.95782 | 36893 ft | 484 kts | 6° |
| 2026-05-06 06:04 | 14.58492 | 116.96632 | 36888 ft | 485 kts | 6° |
| 2026-05-06 06:05 | 14.65198 | 116.97486 | 36882 ft | 485 kts | 6° |
| 2026-05-06 06:05 | 14.71904 | 116.98338 | 36880 ft | 486 kts | 6° |
| 2026-05-06 06:06 | 14.77527 | 116.99054 | 36880 ft | 486 kts | 6° |
| 2026-05-06 06:06 | 14.84243 | 116.99910 | 36882 ft | 487 kts | 6° |
| 2026-05-06 06:07 | 14.90965 | 117.00764 | 36883 ft | 487 kts | 6° |
| 2026-05-06 06:07 | 14.97687 | 117.01622 | 36888 ft | 487 kts | 6° |
| 2026-05-06 06:08 | 15.04409 | 117.02481 | 36891 ft | 487 kts | 6° |
| 2026-05-06 06:08 | 15.11134 | 117.03341 | 36889 ft | 487 kts | 6° |
| 2026-05-06 06:09 | 15.17855 | 117.04197 | 36892 ft | 487 kts | 6° |
| 2026-05-06 06:09 | 15.24579 | 117.05055 | 36892 ft | 487 kts | 6° |
| 2026-05-06 06:10 | 15.31308 | 117.05914 | 36887 ft | 487 kts | 6° |
| 2026-05-06 06:10 | 15.37991 | 117.06772 | 36888 ft | 487 kts | 6° |
| 2026-05-06 06:11 | 15.44726 | 117.07634 | 36890 ft | 488 kts | 6° |
| 2026-05-06 06:11 | 15.51456 | 117.08496 | 36888 ft | 488 kts | 6° |
| 2026-05-06 06:12 | 15.58234 | 117.09365 | 36889 ft | 487 kts | 6° |
| 2026-05-06 06:12 | 15.64921 | 117.10223 | 36892 ft | 487 kts | 6° |
| 2026-05-06 06:13 | 15.71646 | 117.11087 | 36898 ft | 487 kts | 6° |
| 2026-05-06 06:13 | 15.78371 | 117.11951 | 36896 ft | 487 kts | 6° |
| 2026-05-06 06:14 | 15.85143 | 117.12822 | 36902 ft | 487 kts | 6° |
| 2026-05-06 06:14 | 15.91884 | 117.13689 | 36903 ft | 488 kts | 6° |
| 2026-05-06 06:15 | 15.98622 | 117.14557 | 36896 ft | 488 kts | 6° |
| 2026-05-06 06:15 | 16.05369 | 117.15426 | 36898 ft | 488 kts | 6° |
| 2026-05-06 06:16 | 16.12071 | 117.16291 | 36901 ft | 489 kts | 6° |
| 2026-05-06 06:16 | 16.18823 | 117.17161 | 36898 ft | 489 kts | 6° |
| 2026-05-06 06:17 | 16.25577 | 117.18035 | 36907 ft | 489 kts | 6° |
| 2026-05-06 06:17 | 16.32337 | 117.18907 | 36895 ft | 490 kts | 6° |
| 2026-05-06 06:18 | 16.39097 | 117.19782 | 36902 ft | 489 kts | 6° |
| 2026-05-06 06:18 | 16.45638 | 117.21543 | 36897 ft | 490 kts | 26° |
| 2026-05-06 06:19 | 16.48536 | 117.23417 | 36904 ft | 491 kts | 37° |
| 2026-05-06 06:19 | 16.51025 | 117.25850 | 36900 ft | 491 kts | 47° |
| 2026-05-06 06:19 | 16.55603 | 117.31160 | 36904 ft | 494 kts | 47° |
| 2026-05-06 06:20 | 16.60201 | 117.36491 | 36904 ft | 495 kts | 47° |
| 2026-05-06 06:20 | 16.64857 | 117.41809 | 36889 ft | 497 kts | 46° |
| 2026-05-06 06:21 | 16.69542 | 117.47119 | 36885 ft | 498 kts | 46° |
| 2026-05-06 06:21 | 16.74240 | 117.52442 | 36880 ft | 499 kts | 46° |
| 2026-05-06 06:22 | 16.78933 | 117.57765 | 36875 ft | 498 kts | 46° |
| 2026-05-06 06:22 | 16.83622 | 117.63090 | 36882 ft | 498 kts | 46° |
| 2026-05-06 06:23 | 16.88300 | 117.68411 | 36880 ft | 497 kts | 46° |
| 2026-05-06 06:23 | 16.92974 | 117.73731 | 36878 ft | 497 kts | 46° |
| 2026-05-06 06:24 | 16.97644 | 117.79047 | 36881 ft | 497 kts | 46° |
| 2026-05-06 06:24 | 17.02311 | 117.84370 | 36882 ft | 497 kts | 46° |
| 2026-05-06 06:25 | 17.06979 | 117.89694 | 36883 ft | 497 kts | 46° |
| 2026-05-06 06:26 | 17.13980 | 117.97689 | 36877 ft | 497 kts | 46° |
| 2026-05-06 06:26 | 17.18652 | 118.03025 | 36881 ft | 498 kts | 46° |
| 2026-05-06 06:27 | 17.23325 | 118.08371 | 36881 ft | 498 kts | 46° |
| 2026-05-06 06:27 | 17.28005 | 118.13728 | 36881 ft | 499 kts | 46° |
| 2026-05-06 06:28 | 17.32694 | 118.19100 | 36882 ft | 500 kts | 46° |
| 2026-05-06 06:28 | 17.37388 | 118.24484 | 36880 ft | 501 kts | 46° |
| 2026-05-06 06:29 | 17.42082 | 118.29870 | 36881 ft | 501 kts | 46° |
| 2026-05-06 06:29 | 17.46780 | 118.35264 | 36874 ft | 501 kts | 46° |
| 2026-05-06 06:30 | 17.51472 | 118.40658 | 36879 ft | 501 kts | 46° |
| 2026-05-06 06:30 | 17.56160 | 118.46050 | 36881 ft | 501 kts | 46° |
| 2026-05-06 06:31 | 17.60817 | 118.51414 | 36880 ft | 501 kts | 46° |
| 2026-05-06 06:31 | 17.65507 | 118.56818 | 36881 ft | 501 kts | 46° |
| 2026-05-06 06:32 | 17.70195 | 118.62225 | 36878 ft | 501 kts | 46° |
| 2026-05-06 06:32 | 17.74882 | 118.67634 | 36881 ft | 501 kts | 47° |
| 2026-05-06 06:33 | 17.79567 | 118.73049 | 36878 ft | 501 kts | 47° |
| 2026-05-06 06:33 | 17.84255 | 118.78469 | 36881 ft | 502 kts | 47° |
| 2026-05-06 06:34 | 17.88948 | 118.83898 | 36882 ft | 503 kts | 47° |
| 2026-05-06 06:34 | 17.93640 | 118.89335 | 36880 ft | 502 kts | 47° |
| 2026-05-06 06:35 | 17.98331 | 118.94775 | 36880 ft | 503 kts | 47° |
| 2026-05-06 06:35 | 18.03025 | 119.00215 | 36877 ft | 503 kts | 46° |
| 2026-05-06 06:36 | 18.07722 | 119.05660 | 36882 ft | 503 kts | 46° |
| 2026-05-06 06:36 | 18.12418 | 119.11109 | 36881 ft | 503 kts | 46° |
| 2026-05-06 06:37 | 18.17110 | 119.16564 | 36890 ft | 503 kts | 47° |
| 2026-05-06 06:37 | 18.21800 | 119.22021 | 36889 ft | 503 kts | 47° |
| 2026-05-06 06:38 | 18.26490 | 119.27479 | 36902 ft | 504 kts | 46° |
| 2026-05-06 06:38 | 18.31206 | 119.32974 | 36896 ft | 508 kts | 47° |
| 2026-05-06 06:39 | 18.35943 | 119.38498 | 36879 ft | 508 kts | 47° |
| 2026-05-06 06:39 | 18.40656 | 119.44001 | 36881 ft | 504 kts | 47° |
| 2026-05-06 06:40 | 18.45336 | 119.49470 | 36880 ft | 501 kts | 47° |
| 2026-05-06 06:40 | 18.49995 | 119.54916 | 36884 ft | 499 kts | 47° |
| 2026-05-06 06:41 | 18.54638 | 119.60352 | 36889 ft | 500 kts | 47° |
| 2026-05-06 06:41 | 18.59295 | 119.65804 | 36889 ft | 501 kts | 47° |
| 2026-05-06 06:42 | 18.63954 | 119.71264 | 36885 ft | 501 kts | 47° |
| 2026-05-06 06:42 | 18.68622 | 119.76740 | 36890 ft | 503 kts | 47° |
| 2026-05-06 06:43 | 18.73294 | 119.82231 | 36898 ft | 504 kts | 47° |
| 2026-05-06 06:43 | 18.77981 | 119.87740 | 36891 ft | 505 kts | 47° |
| 2026-05-06 06:44 | 18.82670 | 119.93254 | 36890 ft | 505 kts | 47° |
| 2026-05-06 06:44 | 18.87362 | 119.98781 | 36886 ft | 505 kts | 47° |
| 2026-05-06 06:45 | 18.92053 | 120.04316 | 36883 ft | 505 kts | 47° |
| 2026-05-06 06:45 | 18.96741 | 120.09844 | 36892 ft | 505 kts | 47° |
| 2026-05-06 06:46 | 19.01427 | 120.15376 | 36890 ft | 505 kts | 47° |
| 2026-05-06 06:46 | 19.06107 | 120.20910 | 36885 ft | 505 kts | 47° |
| 2026-05-06 06:47 | 19.10789 | 120.26451 | 36886 ft | 505 kts | 47° |
| 2026-05-06 06:47 | 19.15470 | 120.31994 | 36892 ft | 505 kts | 47° |
| 2026-05-06 06:48 | 19.19356 | 120.36603 | 36890 ft | 505 kts | 47° |
| 2026-05-06 06:48 | 19.24824 | 120.43090 | 36885 ft | 505 kts | 47° |
| 2026-05-06 06:49 | 19.28715 | 120.47707 | 36890 ft | 506 kts | 47° |
| 2026-05-06 06:49 | 19.33393 | 120.53269 | 36890 ft | 506 kts | 47° |
| 2026-05-06 06:50 | 19.38089 | 120.58812 | 36878 ft | 503 kts | 43° |
| 2026-05-06 06:50 | 19.40812 | 120.61096 | 36886 ft | 499 kts | 28° |
| 2026-05-06 06:50 | 19.43939 | 120.62642 | 36899 ft | 495 kts | 17° |
| 2026-05-06 06:50 | 19.47276 | 120.63477 | 36884 ft | 491 kts | 3° |
| 2026-05-06 06:51 | 19.50673 | 120.63726 | 36901 ft | 489 kts | 1° |
| 2026-05-06 06:51 | 19.57494 | 120.64167 | 36898 ft | 492 kts | 2° |
| 2026-05-06 06:52 | 19.64347 | 120.64668 | 36909 ft | 495 kts | 2° |
| 2026-05-06 06:52 | 19.71225 | 120.65218 | 36894 ft | 496 kts | 2° |
| 2026-05-06 06:53 | 19.78122 | 120.65785 | 36897 ft | 497 kts | 2° |
| 2026-05-06 06:53 | 19.85025 | 120.66350 | 36901 ft | 497 kts | 2° |
| 2026-05-06 06:54 | 19.91914 | 120.66911 | 36895 ft | 497 kts | 2° |
| 2026-05-06 06:54 | 19.98802 | 120.67477 | 36892 ft | 496 kts | 2° |
| 2026-05-06 06:55 | 20.05677 | 120.68039 | 36904 ft | 495 kts | 2° |
| 2026-05-06 06:55 | 20.12540 | 120.68600 | 36901 ft | 494 kts | 2° |
| 2026-05-06 06:56 | 20.19392 | 120.69161 | 36904 ft | 493 kts | 2° |
| 2026-05-06 06:56 | 20.26227 | 120.69721 | 36904 ft | 492 kts | 2° |
| 2026-05-06 06:57 | 20.33056 | 120.70281 | 36907 ft | 492 kts | 2° |
| 2026-05-06 06:57 | 20.39876 | 120.70843 | 36904 ft | 492 kts | 2° |
| 2026-05-06 06:58 | 20.46697 | 120.71403 | 36910 ft | 492 kts | 2° |
| 2026-05-06 06:58 | 20.53518 | 120.71962 | 36908 ft | 492 kts | 2° |
| 2026-05-06 06:59 | 20.60345 | 120.72525 | 36910 ft | 492 kts | 2° |
| 2026-05-06 06:59 | 20.67182 | 120.73087 | 36910 ft | 493 kts | 2° |
| 2026-05-06 07:00 | 20.74018 | 120.73653 | 36928 ft | 493 kts | 2° |
| 2026-05-06 07:00 | 20.80860 | 120.74218 | 36915 ft | 493 kts | 2° |
| 2026-05-06 07:01 | 20.87697 | 120.74782 | 36914 ft | 493 kts | 2° |
| 2026-05-06 07:01 | 20.94534 | 120.75349 | 36915 ft | 493 kts | 2° |
| 2026-05-06 07:02 | 21.01366 | 120.75916 | 36913 ft | 492 kts | 2° |
| 2026-05-06 07:02 | 21.08193 | 120.76536 | 36917 ft | 492 kts | 2° |
| 2026-05-06 07:03 | 21.15010 | 120.77176 | 36916 ft | 492 kts | 2° |
| 2026-05-06 07:03 | 21.21829 | 120.77814 | 36920 ft | 492 kts | 2° |
| 2026-05-06 07:04 | 21.28645 | 120.78445 | 36912 ft | 492 kts | 2° |
| 2026-05-06 07:04 | 21.35457 | 120.79072 | 36914 ft | 491 kts | 2° |
| 2026-05-06 07:05 | 21.42267 | 120.79703 | 36910 ft | 491 kts | 2° |
| 2026-05-06 07:05 | 21.49078 | 120.80334 | 36918 ft | 491 kts | 2° |
| 2026-05-06 07:06 | 21.55880 | 120.80965 | 36916 ft | 491 kts | 2° |
| 2026-05-06 07:06 | 21.62687 | 120.81597 | 36929 ft | 491 kts | 2° |
| 2026-05-06 07:07 | 21.69493 | 120.82230 | 36932 ft | 491 kts | 2° |
| 2026-05-06 07:07 | 21.76298 | 120.82862 | 36919 ft | 491 kts | 2° |
| 2026-05-06 07:08 | 21.83109 | 120.83496 | 36930 ft | 491 kts | 2° |
| 2026-05-06 07:08 | 21.89906 | 120.83926 | 36921 ft | 487 kts | 354° |
| 2026-05-06 07:09 | 21.96476 | 120.82492 | 36931 ft | 480 kts | 338° |
| 2026-05-06 07:09 | 22.02504 | 120.79473 | 36937 ft | 478 kts | 331° |
| 2026-05-06 07:10 | 22.08445 | 120.76265 | 36926 ft | 478 kts | 331° |
| 2026-05-06 07:10 | 22.14400 | 120.73097 | 36932 ft | 477 kts | 332° |
| 2026-05-06 07:11 | 22.20370 | 120.69958 | 36931 ft | 477 kts | 332° |
| 2026-05-06 07:11 | 22.26344 | 120.66826 | 36923 ft | 477 kts | 332° |
| 2026-05-06 07:12 | 22.32317 | 120.63691 | 36925 ft | 477 kts | 332° |
| 2026-05-06 07:12 | 22.38285 | 120.60550 | 36917 ft | 477 kts | 332° |
| 2026-05-06 07:13 | 22.44255 | 120.57406 | 36916 ft | 477 kts | 332° |
| 2026-05-06 07:13 | 22.50212 | 120.54261 | 36916 ft | 476 kts | 332° |
| 2026-05-06 07:14 | 22.56172 | 120.51117 | 36923 ft | 476 kts | 332° |
| 2026-05-06 07:14 | 22.62123 | 120.47974 | 36917 ft | 476 kts | 332° |
| 2026-05-06 07:15 | 22.68070 | 120.44828 | 36907 ft | 475 kts | 332° |
| 2026-05-06 07:15 | 22.74017 | 120.41681 | 36911 ft | 476 kts | 332° |
| 2026-05-06 07:16 | 22.79960 | 120.38532 | 36910 ft | 476 kts | 332° |
| 2026-05-06 07:16 | 22.85907 | 120.35376 | 36935 ft | 476 kts | 332° |
| 2026-05-06 07:17 | 22.91840 | 120.32206 | 36930 ft | 475 kts | 332° |
| 2026-05-06 07:17 | 22.97765 | 120.29033 | 36936 ft | 475 kts | 332° |
| 2026-05-06 07:18 | 23.03690 | 120.25860 | 36935 ft | 475 kts | 332° |
| 2026-05-06 07:18 | 23.09635 | 120.22750 | 36919 ft | 474 kts | 338° |
| 2026-05-06 07:18 | 23.12842 | 120.21902 | 36943 ft | 478 kts | 351° |
| 2026-05-06 07:19 | 23.16182 | 120.21838 | 36942 ft | 483 kts | 2° |
| 2026-05-06 07:19 | 23.19488 | 120.22537 | 36908 ft | 487 kts | 15° |
| 2026-05-06 07:19 | 23.22691 | 120.23741 | 36963 ft | 488 kts | 16° |
| 2026-05-06 07:20 | 23.29106 | 120.26204 | 36955 ft | 490 kts | 16° |
| 2026-05-06 07:20 | 23.35572 | 120.28601 | 36951 ft | 491 kts | 15° |
| 2026-05-06 07:21 | 23.42069 | 120.30961 | 36949 ft | 493 kts | 15° |
| 2026-05-06 07:21 | 23.48581 | 120.33322 | 36946 ft | 494 kts | 15° |
| 2026-05-06 07:22 | 23.55091 | 120.35689 | 36949 ft | 493 kts | 15° |
| 2026-05-06 07:22 | 23.61579 | 120.38058 | 36953 ft | 491 kts | 15° |
| 2026-05-06 07:23 | 23.68057 | 120.40420 | 36952 ft | 490 kts | 15° |
| 2026-05-06 07:23 | 23.74524 | 120.42784 | 36953 ft | 490 kts | 15° |
| 2026-05-06 07:24 | 23.80978 | 120.45141 | 36965 ft | 489 kts | 15° |
| 2026-05-06 07:24 | 23.87429 | 120.47501 | 36961 ft | 489 kts | 15° |
| 2026-05-06 07:25 | 23.93878 | 120.49865 | 36963 ft | 489 kts | 15° |
| 2026-05-06 07:25 | 24.00326 | 120.52220 | 36964 ft | 489 kts | 15° |
| 2026-05-06 07:26 | 24.06776 | 120.54568 | 36965 ft | 488 kts | 15° |
| 2026-05-06 07:26 | 24.13210 | 120.56956 | 36961 ft | 488 kts | 16° |
| 2026-05-06 07:27 | 24.19631 | 120.59376 | 36964 ft | 488 kts | 15° |
| 2026-05-06 07:27 | 24.26066 | 120.61724 | 36962 ft | 487 kts | 15° |
| 2026-05-06 07:28 | 24.32502 | 120.64067 | 36973 ft | 488 kts | 15° |
| 2026-05-06 07:28 | 24.42160 | 120.67611 | 36970 ft | 488 kts | 15° |
| 2026-05-06 07:29 | 24.47510 | 120.69577 | 36969 ft | 487 kts | 15° |
| 2026-05-06 07:29 | 24.53839 | 120.72260 | 36953 ft | 491 kts | 26° |
| 2026-05-06 07:30 | 24.59331 | 120.76775 | 36968 ft | 498 kts | 43° |
| 2026-05-06 07:30 | 24.63863 | 120.82572 | 36962 ft | 500 kts | 47° |
| 2026-05-06 07:31 | 24.68310 | 120.88459 | 36965 ft | 500 kts | 47° |
| 2026-05-06 07:31 | 24.72810 | 120.94293 | 36965 ft | 500 kts | 46° |
| 2026-05-06 07:32 | 24.77337 | 121.00111 | 36964 ft | 501 kts | 46° |
| 2026-05-06 07:32 | 24.81865 | 121.05946 | 36964 ft | 501 kts | 46° |
| 2026-05-06 07:33 | 24.86397 | 121.11785 | 36961 ft | 501 kts | 46° |
| 2026-05-06 07:33 | 24.90936 | 121.17618 | 36968 ft | 502 kts | 46° |
| 2026-05-06 07:34 | 24.95471 | 121.23456 | 36961 ft | 501 kts | 46° |
| 2026-05-06 07:34 | 24.99998 | 121.29295 | 36964 ft | 501 kts | 46° |
| 2026-05-06 07:35 | 25.04524 | 121.35140 | 36964 ft | 501 kts | 46° |
| 2026-05-06 07:35 | 25.09041 | 121.40981 | 36962 ft | 500 kts | 46° |
| 2026-05-06 07:36 | 25.13548 | 121.46816 | 36966 ft | 499 kts | 46° |
| 2026-05-06 07:36 | 25.18276 | 121.52381 | 36983 ft | 495 kts | 38° |
| 2026-05-06 07:37 | 25.23718 | 121.56945 | 36973 ft | 490 kts | 31° |
| 2026-05-06 07:37 | 25.29350 | 121.61174 | 36966 ft | 489 kts | 30° |
| 2026-05-06 07:38 | 25.34964 | 121.65421 | 36964 ft | 488 kts | 31° |
| 2026-05-06 07:38 | 25.40546 | 121.69698 | 36963 ft | 488 kts | 31° |
| 2026-05-06 07:39 | 25.46118 | 121.73985 | 36963 ft | 487 kts | 31° |
| 2026-05-06 07:39 | 25.51681 | 121.78269 | 36961 ft | 487 kts | 31° |
| 2026-05-06 07:40 | 25.57201 | 121.82522 | 36964 ft | 486 kts | 31° |
| 2026-05-06 07:40 | 25.62746 | 121.86799 | 36963 ft | 486 kts | 31° |
| 2026-05-06 07:41 | 25.68303 | 121.91048 | 36965 ft | 485 kts | 30° |
| 2026-05-06 07:41 | 25.73871 | 121.95262 | 36962 ft | 485 kts | 30° |
| 2026-05-06 07:42 | 25.79423 | 121.99502 | 36964 ft | 484 kts | 30° |
| 2026-05-06 07:42 | 25.84966 | 122.03751 | 36963 ft | 484 kts | 30° |
| 2026-05-06 07:43 | 25.90508 | 122.07997 | 36963 ft | 484 kts | 30° |
| 2026-05-06 07:43 | 25.96045 | 122.12245 | 36963 ft | 484 kts | 30° |
| 2026-05-06 07:44 | 26.01581 | 122.16495 | 36965 ft | 484 kts | 30° |
| 2026-05-06 07:44 | 26.07121 | 122.20757 | 36955 ft | 484 kts | 31° |
| 2026-05-06 07:45 | 26.12667 | 122.25025 | 36955 ft | 485 kts | 31° |
| 2026-05-06 07:45 | 26.18200 | 122.29316 | 36953 ft | 485 kts | 31° |
| 2026-05-06 07:46 | 26.23716 | 122.33637 | 36954 ft | 485 kts | 31° |
| 2026-05-06 07:46 | 26.29233 | 122.37968 | 36954 ft | 485 kts | 31° |
| 2026-05-06 07:47 | 26.34758 | 122.42303 | 36954 ft | 486 kts | 31° |
| 2026-05-06 07:47 | 26.40290 | 122.46645 | 36957 ft | 487 kts | 31° |
| 2026-05-06 07:48 | 26.45840 | 122.51006 | 36956 ft | 489 kts | 31° |
| 2026-05-06 07:48 | 26.51405 | 122.55389 | 36954 ft | 490 kts | 32° |
| 2026-05-06 07:49 | 26.56993 | 122.59790 | 36955 ft | 492 kts | 32° |
| 2026-05-06 07:49 | 26.62581 | 122.64203 | 36952 ft | 493 kts | 32° |
| 2026-05-06 07:50 | 26.68179 | 122.68623 | 36954 ft | 493 kts | 32° |
| 2026-05-06 07:50 | 26.73783 | 122.73045 | 36953 ft | 493 kts | 32° |
| 2026-05-06 07:51 | 26.79395 | 122.77473 | 36954 ft | 494 kts | 32° |
| 2026-05-06 07:51 | 26.85004 | 122.81910 | 36953 ft | 494 kts | 32° |
| 2026-05-06 07:52 | 26.90609 | 122.86350 | 36954 ft | 494 kts | 32° |
| 2026-05-06 07:52 | 26.96217 | 122.90796 | 36955 ft | 494 kts | 32° |
| 2026-05-06 07:53 | 27.01828 | 122.95251 | 36952 ft | 494 kts | 32° |
| 2026-05-06 07:53 | 27.07432 | 122.99705 | 36955 ft | 494 kts | 32° |
| 2026-05-06 07:54 | 27.13034 | 123.04174 | 36952 ft | 494 kts | 32° |
| 2026-05-06 07:54 | 27.18632 | 123.08658 | 36956 ft | 494 kts | 33° |
| 2026-05-06 07:55 | 27.24229 | 123.13147 | 36953 ft | 495 kts | 33° |
| 2026-05-06 07:55 | 27.29831 | 123.17643 | 36954 ft | 495 kts | 33° |
| 2026-05-06 07:56 | 27.35396 | 123.22115 | 36953 ft | 495 kts | 33° |
| 2026-05-06 07:56 | 27.41001 | 123.26625 | 36955 ft | 496 kts | 33° |
| 2026-05-06 07:57 | 27.46652 | 123.31177 | 36953 ft | 496 kts | 33° |
| 2026-05-06 07:57 | 27.52260 | 123.35702 | 36954 ft | 496 kts | 33° |
| 2026-05-06 07:58 | 27.57841 | 123.40211 | 36953 ft | 496 kts | 33° |
| 2026-05-06 07:58 | 27.63458 | 123.44753 | 36955 ft | 497 kts | 33° |
| 2026-05-06 07:59 | 27.69108 | 123.49330 | 36949 ft | 497 kts | 33° |
| 2026-05-06 07:59 | 27.74729 | 123.53886 | 36944 ft | 498 kts | 34° |
| 2026-05-06 08:00 | 27.80357 | 123.58458 | 36945 ft | 498 kts | 34° |
| 2026-05-06 08:00 | 27.85986 | 123.63034 | 36942 ft | 499 kts | 34° |
| 2026-05-06 08:01 | 27.91620 | 123.67622 | 36945 ft | 500 kts | 34° |
| 2026-05-06 08:01 | 27.97227 | 123.72179 | 36944 ft | 500 kts | 34° |
| 2026-05-06 08:02 | 28.02885 | 123.76749 | 36945 ft | 500 kts | 34° |
| 2026-05-06 08:02 | 28.08540 | 123.81328 | 36944 ft | 500 kts | 34° |
| 2026-05-06 08:03 | 28.14191 | 123.85912 | 36944 ft | 499 kts | 34° |
| 2026-05-06 08:03 | 28.19842 | 123.90506 | 36947 ft | 500 kts | 34° |
| 2026-05-06 08:04 | 28.25488 | 123.95100 | 36944 ft | 500 kts | 34° |
| 2026-05-06 08:04 | 28.30937 | 124.00007 | 36942 ft | 501 kts | 42° |
| 2026-05-06 08:05 | 28.35545 | 124.05938 | 36948 ft | 502 kts | 52° |
| 2026-05-06 08:05 | 28.39684 | 124.12342 | 36943 ft | 503 kts | 52° |
| 2026-05-06 08:06 | 28.43813 | 124.18766 | 36946 ft | 504 kts | 52° |
| 2026-05-06 08:06 | 28.47980 | 124.25172 | 36945 ft | 504 kts | 52° |
| 2026-05-06 08:07 | 28.52158 | 124.31567 | 36944 ft | 504 kts | 52° |
| 2026-05-06 08:07 | 28.56336 | 124.37973 | 36950 ft | 504 kts | 52° |
| 2026-05-06 08:08 | 28.60511 | 124.44388 | 36957 ft | 505 kts | 52° |
| 2026-05-06 08:08 | 28.64680 | 124.50808 | 36971 ft | 504 kts | 52° |
| 2026-05-06 08:09 | 28.68851 | 124.57239 | 36974 ft | 505 kts | 52° |
| 2026-05-06 08:09 | 28.73018 | 124.63674 | 36973 ft | 505 kts | 52° |
| 2026-05-06 08:10 | 28.77796 | 124.69443 | 36971 ft | 501 kts | 35° |
| 2026-05-06 08:10 | 28.83905 | 124.73153 | 36973 ft | 498 kts | 18° |
| 2026-05-06 08:11 | 28.90476 | 124.75675 | 36974 ft | 499 kts | 17° |
| 2026-05-06 08:11 | 28.97071 | 124.78194 | 36976 ft | 500 kts | 17° |
| 2026-05-06 08:12 | 29.03661 | 124.80787 | 36972 ft | 501 kts | 18° |
| 2026-05-06 08:12 | 29.10247 | 124.83417 | 36974 ft | 501 kts | 18° |
| 2026-05-06 08:13 | 29.15719 | 124.85610 | 36972 ft | 501 kts | 18° |
| 2026-05-06 08:13 | 29.23362 | 124.88676 | 36979 ft | 501 kts | 18° |
| 2026-05-06 08:14 | 29.28867 | 124.90882 | 36983 ft | 500 kts | 18° |
| 2026-05-06 08:14 | 29.35429 | 124.93516 | 36980 ft | 500 kts | 18° |
| 2026-05-06 08:15 | 29.43058 | 124.96585 | 36978 ft | 500 kts | 18° |
| 2026-05-06 08:15 | 29.48557 | 124.98799 | 36984 ft | 500 kts | 18° |
| 2026-05-06 08:16 | 29.55119 | 125.01441 | 36980 ft | 500 kts | 18° |
| 2026-05-06 08:16 | 29.61687 | 125.04093 | 36981 ft | 500 kts | 18° |
| 2026-05-06 08:17 | 29.68265 | 125.06754 | 36982 ft | 502 kts | 18° |
| 2026-05-06 08:17 | 29.74856 | 125.09423 | 36985 ft | 502 kts | 18° |
| 2026-05-06 08:18 | 29.81402 | 125.12077 | 36994 ft | 503 kts | 18° |
| 2026-05-06 08:18 | 29.88049 | 125.14774 | 37002 ft | 504 kts | 18° |
| 2026-05-06 08:19 | 29.94670 | 125.17465 | 36996 ft | 505 kts | 18° |
| 2026-05-06 08:19 | 30.01259 | 125.20149 | 36991 ft | 506 kts | 18° |
| 2026-05-06 08:20 | 30.07938 | 125.22877 | 36994 ft | 506 kts | 18° |
| 2026-05-06 08:20 | 30.14563 | 125.25592 | 36987 ft | 505 kts | 18° |
| 2026-05-06 08:21 | 30.21130 | 125.28289 | 36990 ft | 504 kts | 18° |
| 2026-05-06 08:21 | 30.27780 | 125.31020 | 36991 ft | 503 kts | 18° |
| 2026-05-06 08:22 | 30.34380 | 125.33733 | 36992 ft | 503 kts | 18° |
| 2026-05-06 08:22 | 30.40981 | 125.36456 | 36990 ft | 503 kts | 18° |
| 2026-05-06 08:23 | 30.47572 | 125.39175 | 36992 ft | 503 kts | 18° |
| 2026-05-06 08:23 | 30.54170 | 125.41899 | 37002 ft | 503 kts | 18° |
| 2026-05-06 08:24 | 30.60758 | 125.44626 | 37000 ft | 503 kts | 18° |
| 2026-05-06 08:24 | 30.67347 | 125.47357 | 37001 ft | 503 kts | 18° |
| 2026-05-06 08:25 | 30.73928 | 125.50087 | 37000 ft | 502 kts | 18° |
| 2026-05-06 08:25 | 30.80500 | 125.52819 | 37001 ft | 501 kts | 18° |
| 2026-05-06 08:26 | 30.87013 | 125.55530 | 37000 ft | 500 kts | 18° |
| 2026-05-06 08:26 | 30.93596 | 125.58273 | 36999 ft | 498 kts | 18° |
| 2026-05-06 08:27 | 31.00069 | 125.60976 | 37001 ft | 497 kts | 18° |
| 2026-05-06 08:27 | 31.06561 | 125.63689 | 37009 ft | 495 kts | 18° |
| 2026-05-06 08:28 | 31.13038 | 125.66402 | 37013 ft | 494 kts | 18° |
| 2026-05-06 08:28 | 31.19499 | 125.69111 | 37007 ft | 492 kts | 18° |
| 2026-05-06 08:29 | 31.25939 | 125.71814 | 37008 ft | 491 kts | 18° |
| 2026-05-06 08:29 | 31.32358 | 125.74510 | 37012 ft | 490 kts | 18° |
| 2026-05-06 08:30 | 31.38751 | 125.77203 | 37018 ft | 488 kts | 18° |
| 2026-05-06 08:30 | 31.45120 | 125.79892 | 37018 ft | 486 kts | 18° |
| 2026-05-06 08:31 | 31.51481 | 125.82578 | 37027 ft | 486 kts | 18° |
| 2026-05-06 08:31 | 31.57820 | 125.85258 | 37027 ft | 484 kts | 18° |
| 2026-05-06 08:32 | 31.64166 | 125.87930 | 37030 ft | 485 kts | 18° |
| 2026-05-06 08:32 | 31.70510 | 125.90599 | 37043 ft | 485 kts | 18° |
| 2026-05-06 08:33 | 31.76865 | 125.93280 | 37032 ft | 485 kts | 18° |
| 2026-05-06 08:33 | 31.83211 | 125.95955 | 37041 ft | 484 kts | 18° |
| 2026-05-06 08:34 | 31.92718 | 125.99963 | 37036 ft | 483 kts | 18° |
| 2026-05-06 08:35 | 31.99043 | 126.02638 | 37044 ft | 483 kts | 18° |
| 2026-05-06 08:35 | 32.05378 | 126.05324 | 37057 ft | 484 kts | 18° |
| 2026-05-06 08:36 | 32.11714 | 126.08012 | 37056 ft | 484 kts | 18° |
| 2026-05-06 08:36 | 32.18055 | 126.10693 | 37058 ft | 484 kts | 18° |
| 2026-05-06 08:37 | 32.24408 | 126.13384 | 37060 ft | 484 kts | 18° |
| 2026-05-06 08:37 | 32.30739 | 126.16084 | 37055 ft | 484 kts | 18° |
| 2026-05-06 08:38 | 32.37081 | 126.18776 | 37057 ft | 484 kts | 18° |
| 2026-05-06 08:38 | 32.43428 | 126.21482 | 37062 ft | 486 kts | 18° |
| 2026-05-06 08:39 | 32.49796 | 126.24203 | 37063 ft | 487 kts | 18° |
| 2026-05-06 08:39 | 32.56175 | 126.26929 | 37064 ft | 488 kts | 18° |
| 2026-05-06 08:40 | 32.62570 | 126.29679 | 37064 ft | 489 kts | 18° |
| 2026-05-06 08:40 | 32.68972 | 126.32440 | 37068 ft | 490 kts | 18° |
| 2026-05-06 08:41 | 32.75338 | 126.35184 | 37064 ft | 491 kts | 18° |
| 2026-05-06 08:41 | 32.81753 | 126.37959 | 37073 ft | 491 kts | 18° |
| 2026-05-06 08:42 | 32.88206 | 126.40751 | 37072 ft | 490 kts | 18° |
| 2026-05-06 08:42 | 32.94611 | 126.43533 | 37071 ft | 490 kts | 18° |
| 2026-05-06 08:43 | 33.00977 | 126.46292 | 37075 ft | 490 kts | 18° |
| 2026-05-06 08:43 | 33.07383 | 126.49038 | 37073 ft | 489 kts | 18° |
| 2026-05-06 08:44 | 33.13779 | 126.51768 | 37075 ft | 488 kts | 18° |
| 2026-05-06 08:44 | 33.20175 | 126.54511 | 37074 ft | 488 kts | 18° |
| 2026-05-06 08:45 | 33.26566 | 126.57260 | 37079 ft | 488 kts | 18° |
| 2026-05-06 08:45 | 33.32956 | 126.60009 | 37074 ft | 488 kts | 18° |
| 2026-05-06 08:46 | 33.39447 | 126.62344 | 37068 ft | 487 kts | 10° |
| 2026-05-06 08:46 | 33.46136 | 126.63333 | 37083 ft | 484 kts | 3° |
| 2026-05-06 08:47 | 33.52841 | 126.63976 | 37072 ft | 483 kts | 3° |
| 2026-05-06 08:47 | 33.59544 | 126.64643 | 37071 ft | 483 kts | 3° |
| 2026-05-06 08:48 | 33.66242 | 126.65344 | 37073 ft | 482 kts | 4° |
| 2026-05-06 08:48 | 33.72918 | 126.66055 | 37073 ft | 482 kts | 4° |
| 2026-05-06 08:49 | 33.79594 | 126.66772 | 37074 ft | 481 kts | 4° |
| 2026-05-06 08:49 | 33.86255 | 126.67490 | 37070 ft | 480 kts | 4° |
| 2026-05-06 08:50 | 33.92912 | 126.68202 | 37075 ft | 480 kts | 4° |
| 2026-05-06 08:50 | 33.99564 | 126.68918 | 37074 ft | 480 kts | 4° |
| 2026-05-06 08:51 | 34.06216 | 126.69629 | 37070 ft | 479 kts | 4° |
| 2026-05-06 08:51 | 34.12848 | 126.70345 | 37064 ft | 478 kts | 4° |
| 2026-05-06 08:52 | 34.19464 | 126.71056 | 37062 ft | 477 kts | 4° |
| 2026-05-06 08:52 | 34.26058 | 126.71768 | 37062 ft | 475 kts | 4° |
| 2026-05-06 08:53 | 34.32642 | 126.72479 | 37065 ft | 476 kts | 4° |
| 2026-05-06 08:53 | 34.39233 | 126.73191 | 37058 ft | 476 kts | 4° |
| 2026-05-06 08:54 | 34.45837 | 126.73911 | 37045 ft | 477 kts | 4° |
| 2026-05-06 08:54 | 34.52448 | 126.74629 | 37050 ft | 477 kts | 4° |
| 2026-05-06 08:55 | 34.59065 | 126.75346 | 37043 ft | 477 kts | 4° |
| 2026-05-06 08:55 | 34.65637 | 126.76061 | 37038 ft | 477 kts | 4° |
| 2026-05-06 08:56 | 34.72243 | 126.76781 | 37046 ft | 477 kts | 4° |
| 2026-05-06 08:56 | 34.78845 | 126.77499 | 37046 ft | 476 kts | 3° |
| 2026-05-06 08:57 | 34.85446 | 126.78222 | 37046 ft | 476 kts | 4° |
| 2026-05-06 08:57 | 34.92055 | 126.78942 | 37051 ft | 477 kts | 3° |
| 2026-05-06 08:58 | 34.97588 | 126.79550 | 37045 ft | 476 kts | 4° |
| 2026-05-06 08:58 | 35.05260 | 126.80393 | 37052 ft | 475 kts | 3° |
| 2026-05-06 08:59 | 35.10723 | 126.80991 | 37044 ft | 475 kts | 3° |
| 2026-05-06 08:59 | 35.17304 | 126.81713 | 37051 ft | 474 kts | 3° |
| 2026-05-06 09:00 | 35.23921 | 126.82430 | 37048 ft | 474 kts | 3° |
| 2026-05-06 09:00 | 35.30441 | 126.83138 | 37044 ft | 474 kts | 3° |
| 2026-05-06 09:01 | 35.37005 | 126.83852 | 37029 ft | 474 kts | 3° |
| 2026-05-06 09:01 | 35.43569 | 126.84567 | 37042 ft | 473 kts | 3° |
| 2026-05-06 09:02 | 35.50124 | 126.85283 | 37039 ft | 473 kts | 3° |
| 2026-05-06 09:02 | 35.56675 | 126.86005 | 37040 ft | 473 kts | 3° |
| 2026-05-06 09:03 | 35.63248 | 126.86736 | 37037 ft | 473 kts | 3° |
| 2026-05-06 09:03 | 35.69804 | 126.87467 | 37041 ft | 473 kts | 3° |
| 2026-05-06 09:04 | 35.76365 | 126.88198 | 37032 ft | 473 kts | 3° |
| 2026-05-06 09:04 | 35.82923 | 126.88931 | 37041 ft | 473 kts | 3° |
| 2026-05-06 09:05 | 35.89497 | 126.89666 | 37039 ft | 473 kts | 3° |
| 2026-05-06 09:05 | 35.96060 | 126.90392 | 37032 ft | 474 kts | 3° |
| 2026-05-06 09:06 | 36.02615 | 126.91114 | 37040 ft | 473 kts | 2° |
| 2026-05-06 09:06 | 36.09177 | 126.91836 | 37025 ft | 473 kts | 2° |
| 2026-05-06 09:07 | 36.15727 | 126.92562 | 37020 ft | 472 kts | 2° |
| 2026-05-06 09:07 | 36.22228 | 126.93281 | 37020 ft | 472 kts | 2° |
| 2026-05-06 09:08 | 36.28809 | 126.94011 | 37017 ft | 472 kts | 2° |
| 2026-05-06 09:08 | 36.35353 | 126.94738 | 37009 ft | 472 kts | 2° |
| 2026-05-06 09:09 | 36.41903 | 126.95470 | 37013 ft | 472 kts | 2° |
| 2026-05-06 09:09 | 36.48398 | 126.96212 | 37009 ft | 472 kts | 2° |
| 2026-05-06 09:10 | 36.54858 | 126.96951 | 37000 ft | 460 kts | 2° |
| 2026-05-06 09:10 | 36.61197 | 126.97672 | 36995 ft | 455 kts | 2° |
| 2026-05-06 09:11 | 36.67489 | 126.98390 | 37000 ft | 453 kts | 2° |
| 2026-05-06 09:11 | 36.70606 | 126.98510 | 36989 ft | 446 kts | 350° |
| 2026-05-06 09:11 | 36.73586 | 126.97573 | 37015 ft | 441 kts | 335° |
| 2026-05-06 09:11 | 36.76293 | 126.95793 | 36993 ft | 440 kts | 323° |
| 2026-05-06 09:12 | 36.78580 | 126.93269 | 37001 ft | 439 kts | 313° |
| 2026-05-06 09:12 | 36.82820 | 126.87731 | 36991 ft | 443 kts | 314° |
| 2026-05-06 09:13 | 36.87144 | 126.82211 | 36998 ft | 446 kts | 314° |
| 2026-05-06 09:13 | 36.91530 | 126.76689 | 36996 ft | 448 kts | 314° |
| 2026-05-06 09:14 | 36.95909 | 126.71161 | 36996 ft | 447 kts | 314° |
| 2026-05-06 09:14 | 37.00269 | 126.65638 | 36996 ft | 444 kts | 312° |
| 2026-05-06 09:14 | 37.02078 | 126.62547 | 37010 ft | 441 kts | 298° |
| 2026-05-06 09:15 | 37.03239 | 126.58991 | 37002 ft | 442 kts | 285° |
| 2026-05-06 09:15 | 37.04556 | 126.51646 | 36568 ft | 421 kts | 300° |
| 2026-05-06 09:15 | 37.06370 | 126.48885 | 35982 ft | 407 kts | 320° |
| 2026-05-06 09:16 | 37.08791 | 126.47008 | 34324 ft | 419 kts | 330° |
| 2026-05-06 09:16 | 37.11338 | 126.45090 | 32136 ft | 437 kts | 323° |
| 2026-05-06 09:16 | 37.13822 | 126.42747 | 29919 ft | 455 kts | 321° |
| 2026-05-06 09:16 | 37.16349 | 126.40310 | 28226 ft | 460 kts | 321° |
| 2026-05-06 09:17 | 37.18875 | 126.37937 | 27340 ft | 444 kts | 320° |
| 2026-05-06 09:17 | 37.20908 | 126.35276 | 27044 ft | 414 kts | 303° |
| 2026-05-06 09:17 | 37.22229 | 126.32157 | 26893 ft | 386 kts | 291° |
| 2026-05-06 09:17 | 37.23015 | 126.29054 | 26737 ft | 363 kts | 282° |
| 2026-05-06 09:18 | 37.23270 | 126.26047 | 26600 ft | 341 kts | 274° |
| 2026-05-06 09:18 | 37.23388 | 126.23128 | 26409 ft | 322 kts | 274° |
| 2026-05-06 09:18 | 37.23703 | 126.20420 | 26018 ft | 308 kts | 291° |
| 2026-05-06 09:18 | 37.24729 | 126.18107 | 25473 ft | 302 kts | 308° |
| 2026-05-06 09:19 | 37.26223 | 126.16281 | 24847 ft | 301 kts | 321° |
| 2026-05-06 09:19 | 37.27916 | 126.14753 | 24241 ft | 299 kts | 323° |
| 2026-05-06 09:19 | 37.29628 | 126.13289 | 23654 ft | 296 kts | 323° |
| 2026-05-06 09:19 | 37.31312 | 126.11840 | 23090 ft | 292 kts | 323° |
| 2026-05-06 09:20 | 37.32967 | 126.10386 | 22515 ft | 289 kts | 322° |
| 2026-05-06 09:20 | 37.34598 | 126.08936 | 21928 ft | 286 kts | 322° |
| 2026-05-06 09:20 | 37.36215 | 126.07491 | 21352 ft | 284 kts | 322° |
| 2026-05-06 09:20 | 37.37798 | 126.06074 | 20783 ft | 282 kts | 322° |
| 2026-05-06 09:21 | 37.39392 | 126.04646 | 20224 ft | 280 kts | 322° |
| 2026-05-06 09:21 | 37.40970 | 126.03230 | 19678 ft | 278 kts | 321° |
| 2026-05-06 09:21 | 37.42577 | 126.01904 | 19106 ft | 277 kts | 334° |
| 2026-05-06 09:21 | 37.44471 | 126.01431 | 18483 ft | 284 kts | 2° |
| 2026-05-06 09:22 | 37.46371 | 126.02120 | 17841 ft | 289 kts | 28° |
| 2026-05-06 09:22 | 37.47883 | 126.03773 | 17232 ft | 291 kts | 51° |
| 2026-05-06 09:22 | 37.49007 | 126.05880 | 16675 ft | 290 kts | 65° |
| 2026-05-06 09:22 | 37.49415 | 126.08323 | 16072 ft | 286 kts | 96° |
| 2026-05-06 09:23 | 37.48895 | 126.10686 | 15510 ft | 279 kts | 122° |
| 2026-05-06 09:23 | 37.47750 | 126.12603 | 14964 ft | 271 kts | 142° |
| 2026-05-06 09:23 | 37.46256 | 126.14023 | 14432 ft | 268 kts | 148° |
| 2026-05-06 09:23 | 37.44733 | 126.15348 | 13923 ft | 265 kts | 148° |
| 2026-05-06 09:24 | 37.43223 | 126.16667 | 13423 ft | 263 kts | 148° |
| 2026-05-06 09:24 | 37.41732 | 126.17986 | 12950 ft | 261 kts | 147° |
| 2026-05-06 09:24 | 37.40257 | 126.19296 | 12460 ft | 258 kts | 147° |
| 2026-05-06 09:24 | 37.38795 | 126.20596 | 11965 ft | 256 kts | 147° |
| 2026-05-06 09:25 | 37.37353 | 126.21903 | 11497 ft | 255 kts | 141° |
| 2026-05-06 09:25 | 37.36315 | 126.23682 | 10964 ft | 257 kts | 109° |
| 2026-05-06 09:25 | 37.36186 | 126.25883 | 10518 ft | 255 kts | 78° |
| 2026-05-06 09:25 | 37.36893 | 126.27915 | 9994 ft | 255 kts | 56° |
| 2026-05-06 09:26 | 37.37916 | 126.29728 | 9542 ft | 254 kts | 53° |
| 2026-05-06 09:26 | 37.38983 | 126.31484 | 9101 ft | 251 kts | 44° |
| 2026-05-06 09:26 | 37.40452 | 126.32588 | 8593 ft | 247 kts | 12° |
| 2026-05-06 09:26 | 37.42139 | 126.32588 | 8123 ft | 242 kts | 345° |
| 2026-05-06 09:27 | 37.43653 | 126.31758 | 7696 ft | 236 kts | 326° |
| 2026-05-06 09:27 | 37.45001 | 126.30590 | 7282 ft | 234 kts | 322° |
| 2026-05-06 09:27 | 37.46313 | 126.29385 | 6868 ft | 232 kts | 321° |
| 2026-05-06 09:27 | 37.47609 | 126.28189 | 6439 ft | 231 kts | 322° |
| 2026-05-06 09:28 | 37.48909 | 126.27010 | 6023 ft | 230 kts | 322° |
| 2026-05-06 09:28 | 37.50206 | 126.25840 | 5608 ft | 228 kts | 322° |
| 2026-05-06 09:28 | 37.51507 | 126.24668 | 4924 ft | 234 kts | 322° |
| 2026-05-06 09:28 | 37.52873 | 126.23437 | 4043 ft | 248 kts | 322° |
| 2026-05-06 09:29 | 37.54183 | 126.22268 | 4050 ft | 221 kts | 322° |
| 2026-05-06 09:29 | 37.55481 | 126.21231 | 3526 ft | 223 kts | 336° |
| 2026-05-06 09:29 | 37.57015 | 126.21106 | 3021 ft | 227 kts | 14° |
| 2026-05-06 09:29 | 37.58317 | 126.22214 | 2593 ft | 230 kts | 51° |
| 2026-05-06 09:30 | 37.59234 | 126.23839 | 2311 ft | 227 kts | 55° |
| 2026-05-06 09:30 | 37.60143 | 126.25452 | 2098 ft | 222 kts | 55° |
| 2026-05-06 09:30 | 37.60796 | 126.27165 | 2005 ft | 218 kts | 83° |
| 2026-05-06 09:30 | 37.60563 | 126.29018 | 2010 ft | 218 kts | 120° |
| 2026-05-06 09:31 | 37.59577 | 126.30423 | 2009 ft | 209 kts | 141° |
| 2026-05-06 09:31 | 37.58488 | 126.31523 | 1981 ft | 191 kts | 145° |
| 2026-05-06 09:31 | 37.57463 | 126.32461 | 1989 ft | 176 kts | 147° |
| 2026-05-06 09:31 | 37.56479 | 126.33342 | 1988 ft | 172 kts | 147° |
| 2026-05-06 09:32 | 37.55496 | 126.34217 | 1996 ft | 174 kts | 147° |
| 2026-05-06 09:32 | 37.54486 | 126.35120 | 1750 ft | 178 kts | 146° |
| 2026-05-06 09:32 | 37.53488 | 126.36012 | 1522 ft | 173 kts | 147° |
| 2026-05-06 09:32 | 37.52542 | 126.36858 | 1290 ft | 159 kts | 147° |
| 2026-05-06 09:33 | 37.51687 | 126.37624 | 1099 ft | 145 kts | 147° |
| 2026-05-06 09:33 | 37.50865 | 126.38357 | 926 ft | 146 kts | 147° |
| 2026-05-06 09:33 | 37.50035 | 126.39100 | 725 ft | 146 kts | 146° |
| 2026-05-06 09:33 | 37.49213 | 126.39848 | 535 ft | 145 kts | 145° |
| 2026-05-06 09:34 | 37.48422 | 126.40581 | 372 ft | 138 kts | 148° |
| 2026-05-06 09:34 | 37.47570 | 126.41289 | 172 ft | 151 kts | 145° |
| 2026-05-06 09:34 | 37.46734 | 126.42049 | 47 ft | 143 kts | 146° |
| 2026-05-06 09:34 | 37.46012 | 126.42688 | 38 ft | 106 kts | 144° |
| 2026-05-06 09:35 | 37.45534 | 126.43117 | 38 ft | 63 kts | 146° |
| 2026-05-06 09:35 | 37.45322 | 126.43326 | 36 ft | 24 kts | 132° |
| 2026-05-06 09:35 | 37.45252 | 126.43450 | 38 ft | 15 kts | 119° |
| 2026-05-06 09:35 | 37.45222 | 126.43544 | 38 ft | 9 kts | 97° |
| 2026-05-06 09:36 | 37.45254 | 126.43608 | 38 ft | 9 kts | 31° |
| 2026-05-06 09:36 | 37.45305 | 126.43659 | 38 ft | 10 kts | 53° |
| 2026-05-06 09:36 | 37.45345 | 126.43731 | 38 ft | 10 kts | 55° |
| 2026-05-06 09:36 | 37.45382 | 126.43811 | 38 ft | 11 kts | 80° |
| 2026-05-06 09:37 | 37.45344 | 126.43888 | 38 ft | 11 kts | 141° |
| 2026-05-06 09:37 | 37.45283 | 126.43944 | 37 ft | 11 kts | 144° |
| 2026-05-06 09:37 | 37.45222 | 126.43999 | 38 ft | 11 kts | 144° |
| 2026-05-06 09:37 | 37.45172 | 126.44068 | 37 ft | 11 kts | 116° |
| 2026-05-06 09:38 | 37.45127 | 126.44144 | 37 ft | 11 kts | 146° |
| 2026-05-06 09:38 | 37.45067 | 126.44203 | 37 ft | 11 kts | 126° |
| 2026-05-06 09:38 | 37.45083 | 126.44292 | 36 ft | 11 kts | 52° |
| 2026-05-06 09:38 | 37.45131 | 126.44373 | 37 ft | 12 kts | 55° |
| 2026-05-06 09:39 | 37.45180 | 126.44460 | 37 ft | 13 kts | 55° |
| 2026-05-06 09:39 | 37.45230 | 126.44551 | 37 ft | 13 kts | 60° |
| 2026-05-06 09:39 | 37.45226 | 126.44652 | 37 ft | 12 kts | 121° |
| 2026-05-06 09:39 | 37.45189 | 126.44707 | 37 ft | 12 kts | 131° |
| 2026-05-06 09:40 | 37.45144 | 126.44789 | 37 ft | 10 kts | 125° |
| 2026-05-06 09:40 | 37.45099 | 126.44815 | 37 ft | 8 kts | 201° |
| 2026-05-06 09:40 | 37.45042 | 126.44767 | 37 ft | 3 kts | 215° |
| 2026-05-06 09:41 | 37.45040 | 126.44766 | 37 ft | 0 kts | 215° |